createdAt,value
2023-01-27T00:00:47.147Z,82.40
2023-01-27T00:04:21.994Z,75.70
2023-01-27T00:08:09.845Z,73.70
2023-01-27T00:12:02.387Z,74.20
2023-01-27T00:16:06.479Z,74.10
2023-01-27T00:19:44.804Z,64.70
2023-01-27T00:23:38.240Z,70.10
2023-01-27T00:27:42.144Z,64.70
2023-01-27T00:31:44.662Z,68.60
2023-01-27T00:35:41.299Z,69.40
2023-01-27T00:39:37.827Z,71.60
2023-01-27T00:43:41.757Z,67.90
2023-01-27T00:47:26.490Z,73.50
2023-01-27T00:51:19.076Z,67.10
2023-01-27T00:55:16.366Z,69.10
2023-01-27T00:59:20.216Z,56.00
2023-01-27T01:03:23.837Z,60.60
2023-01-27T01:07:09.902Z,56.10
2023-01-27T01:10:49.978Z,52.90
2023-01-27T01:14:55.858Z,60.70
2023-01-27T01:18:59.847Z,50.20
2023-01-27T01:22:53.967Z,51.00
2023-01-27T01:26:56.621Z,52.60
2023-01-27T01:31:00.529Z,53.10
2023-01-27T01:35:05.515Z,48.90
2023-01-27T01:39:11.461Z,43.40
2023-01-27T01:43:30.594Z,48.20
2023-01-27T01:47:24.331Z,52.70
2023-01-27T01:51:29.374Z,56.90
2023-01-27T01:55:33.469Z,56.40
2023-01-27T01:59:37.428Z,60.20
2023-01-27T02:03:24.103Z,54.90
2023-01-27T02:06:32.902Z,49.20
2023-01-27T02:10:10.087Z,48.40
2023-01-27T02:14:03.969Z,51.20
2023-01-27T02:17:46.221Z,46.10
2023-01-27T02:21:41.333Z,46.10
2023-01-27T02:24:58.817Z,51.80
2023-01-27T02:28:37.611Z,51.80
2023-01-27T02:32:40.444Z,47.70
2023-01-27T02:36:44.235Z,49.80
2023-01-27T02:40:38.210Z,48.20
2023-01-27T02:44:24.759Z,52.20
2023-01-27T02:48:29.016Z,57.40
2023-01-27T02:51:47.825Z,48.90
2023-01-27T02:55:30.523Z,55.80
2023-01-27T02:59:04.094Z,54.90
2023-01-27T03:02:47.024Z,60.10
2023-01-27T03:06:32.375Z,54.20
2023-01-27T03:10:26.204Z,50.70
2023-01-27T03:14:14.806Z,58.50
2023-01-27T03:18:06.700Z,56.80
2023-01-27T03:21:46.837Z,56.30
2023-01-27T03:25:16.372Z,55.70
2023-01-27T03:29:03.165Z,62.60
2023-01-27T03:32:46.983Z,58.60
2023-01-27T03:36:38.263Z,59.60
2023-01-27T03:40:13.160Z,65.00
2023-01-27T03:43:37.733Z,57.50
2023-01-27T03:47:27.064Z,64.50
2023-01-27T03:51:24.787Z,61.90
2023-01-27T03:54:43.075Z,61.70
2023-01-27T03:58:40.233Z,70.90
2023-01-27T04:02:06.566Z,63.40
2023-01-27T04:05:48.912Z,63.80
2023-01-27T04:09:32.598Z,63.80
2023-01-27T04:13:27.567Z,64.70
2023-01-27T04:17:20.071Z,58.60
2023-01-27T04:20:56.991Z,70.80
2023-01-27T04:24:26.821Z,66.50
2023-01-27T04:27:58.552Z,65.50
2023-01-27T04:31:52.470Z,63.00
2023-01-27T04:35:47.638Z,73.70
2023-01-27T04:39:08.611Z,76.10
2023-01-27T04:42:54.905Z,66.90
2023-01-27T04:46:58.907Z,71.00
2023-01-27T04:50:24.187Z,61.80
2023-01-27T04:54:08.211Z,64.00
2023-01-27T05:01:24.587Z,63.90
2023-01-27T05:04:59.574Z,70.20
2023-01-27T05:08:32.308Z,59.10
2023-01-27T05:11:54.435Z,61.10
2023-01-27T05:15:40.661Z,58.70
2023-01-27T05:19:18.119Z,60.80
2023-01-27T05:22:27.180Z,63.20
2023-01-27T05:26:14.946Z,55.20
2023-01-27T05:29:48.567Z,55.30
2023-01-27T05:33:42.578Z,64.90
2023-01-27T05:37:21.503Z,56.40
2023-01-27T05:41:14.133Z,60.20
2023-01-27T05:45:10.520Z,61.30
2023-01-27T05:48:28.277Z,58.70
2023-01-27T05:51:58.071Z,56.50
2023-01-27T05:55:33.330Z,58.00
2023-01-27T05:59:27.359Z,52.90
2023-01-27T06:06:56.339Z,55.60
2023-01-27T06:10:39.685Z,50.80
2023-01-27T06:13:57.195Z,56.30
2023-01-27T06:17:33.267Z,51.10
2023-01-27T06:20:44.145Z,54.30
2023-01-27T06:24:34.097Z,57.20
2023-01-27T06:28:29.738Z,54.30
2023-01-27T06:32:23.866Z,56.90
2023-01-27T06:35:53.803Z,54.60
2023-01-27T06:39:21.845Z,53.10
2023-01-27T06:43:26.933Z,49.40
2023-01-27T06:46:53.571Z,53.80
2023-01-27T06:50:56.083Z,53.70
2023-01-27T06:54:32.521Z,50.70
2023-01-27T06:58:10.741Z,44.50
2023-01-27T07:01:57.792Z,52.70
2023-01-27T07:05:51.389Z,47.10
2023-01-27T07:09:05.515Z,46.80
2023-01-27T07:12:42.904Z,43.00
2023-01-27T07:16:24.248Z,52.40
2023-01-27T07:20:22.774Z,49.40
2023-01-27T07:23:59.537Z,48.60
2023-01-27T07:27:43.609Z,51.70
2023-01-27T07:31:21.067Z,53.30
2023-01-27T07:35:00.352Z,52.30
2023-01-27T07:38:20.128Z,47.70
2023-01-27T07:41:46.647Z,46.80
2023-01-27T07:45:09.669Z,47.20
2023-01-27T07:49:01.438Z,54.90
2023-01-27T07:52:22.404Z,51.30
2023-01-27T07:56:11.044Z,50.40
2023-01-27T07:59:38.751Z,55.30
2023-01-27T08:03:22.646Z,56.30
2023-01-27T08:07:18.056Z,57.20
2023-01-27T08:10:47.041Z,54.30
2023-01-27T08:14:02.991Z,58.20
2023-01-27T08:17:40.750Z,63.30
2023-01-27T08:21:09.614Z,60.60
2023-01-27T08:24:12.937Z,60.40
2023-01-27T08:27:30.986Z,56.70
2023-01-27T08:31:25.139Z,60.30
2023-01-27T08:34:59.510Z,52.70
2023-01-27T08:38:19.452Z,49.60
2023-01-27T08:41:44.568Z,49.30
2023-01-27T08:45:08.894Z,50.00
2023-01-27T08:49:03.880Z,50.40
2023-01-27T08:52:07.267Z,48.20
2023-01-27T08:58:42.124Z,42.60
2023-01-27T09:02:16.384Z,45.40
2023-01-27T09:05:29.970Z,42.60
2023-01-27T09:09:12.811Z,45.10
2023-01-27T09:12:38.971Z,46.50
2023-01-27T09:15:50.242Z,41.80
2023-01-27T09:19:27.689Z,46.00
2023-01-27T09:23:01.404Z,46.60
2023-01-27T09:26:35.467Z,41.80
2023-01-27T09:30:18.942Z,42.50
2023-01-27T09:33:49.434Z,44.50
2023-01-27T09:37:26.898Z,42.00
2023-01-27T09:41:03.720Z,36.40
2023-01-27T09:45:05.016Z,43.10
2023-01-27T09:49:05.991Z,39.20
2023-01-27T09:52:00.309Z,45.90
2023-01-27T09:55:42.090Z,48.60
2023-01-27T09:59:42.046Z,46.60
2023-01-27T10:03:20.730Z,43.70
2023-01-27T10:06:48.171Z,45.50
2023-01-27T10:10:29.672Z,45.70
2023-01-27T10:17:31.173Z,51.60
2023-01-27T10:21:14.075Z,53.30
2023-01-27T10:24:57.219Z,48.40
2023-01-27T10:28:49.874Z,49.10
2023-01-27T10:32:27.901Z,44.40
2023-01-27T10:36:10.169Z,40.80
2023-01-27T10:39:35.397Z,47.30
2023-01-27T10:43:27.890Z,45.00
2023-01-27T10:47:29.672Z,41.50
2023-01-27T10:54:36.586Z,47.60
2023-01-27T10:58:12.971Z,45.80
2023-01-27T11:01:54.957Z,48.90
2023-01-27T11:05:28.753Z,47.40
2023-01-27T11:08:58.134Z,50.70
2023-01-27T11:12:44.338Z,51.60
2023-01-27T11:16:01.739Z,48.70
2023-01-27T11:19:52.126Z,51.20
2023-01-27T11:23:50.331Z,54.10
2023-01-27T11:27:28.215Z,49.90
2023-01-27T11:31:20.865Z,49.00
2023-01-27T11:35:02.010Z,47.50
2023-01-27T11:38:15.734Z,45.20
2023-01-27T11:42:08.366Z,43.70
2023-01-27T11:45:24.533Z,45.00
2023-01-27T11:49:16.522Z,51.20
2023-01-27T11:52:38.418Z,40.30
2023-01-27T11:56:07.680Z,49.30
2023-01-27T12:00:03.267Z,47.10
2023-01-27T12:03:53.874Z,43.90
2023-01-27T12:07:46.014Z,45.60
2023-01-27T12:11:14.263Z,44.60
2023-01-27T12:14:41.040Z,47.40
2023-01-27T12:18:28.891Z,45.20
2023-01-27T12:22:15.952Z,43.20
2023-01-27T12:26:07.907Z,43.40
2023-01-27T12:29:26.272Z,45.00
2023-01-27T12:32:45.439Z,50.90
2023-01-27T12:35:51.689Z,45.00
2023-01-27T12:39:00.389Z,47.70
2023-01-27T12:41:56.406Z,45.20
2023-01-27T12:45:10.806Z,45.20
2023-01-27T12:48:23.600Z,45.80
2023-01-27T12:51:56.454Z,46.00
2023-01-27T12:55:02.810Z,43.20
2023-01-27T12:58:56.736Z,49.30
2023-01-27T13:01:41.909Z,46.10
2023-01-27T13:04:38.761Z,46.00
2023-01-27T13:07:56.134Z,45.50
2023-01-27T13:11:31.277Z,47.40
2023-01-27T13:14:26.023Z,43.10
2023-01-27T13:17:40.763Z,43.40
2023-01-27T13:20:50.186Z,41.10
2023-01-27T13:23:59.563Z,44.20
2023-01-27T13:27:16.866Z,38.40
2023-01-27T13:30:52.287Z,42.20
2023-01-27T13:34:19.294Z,39.20
2023-01-27T13:37:28.161Z,37.60
2023-01-27T13:41:10.917Z,36.00
2023-01-27T13:44:36.930Z,35.00
2023-01-27T13:48:18.078Z,35.90
2023-01-27T13:51:31.730Z,37.00
2023-01-27T13:54:25.522Z,37.90
2023-01-27T13:58:13.222Z,39.10
2023-01-27T14:01:27.978Z,37.20
2023-01-27T14:04:58.984Z,44.90
2023-01-27T14:08:05.638Z,38.20
2023-01-27T14:11:50.695Z,50.10
2023-01-27T14:15:52.870Z,42.90
2023-01-27T14:20:06.727Z,44.70
2023-01-27T14:23:43.871Z,44.20
2023-01-27T14:27:07.269Z,48.10
2023-01-27T14:31:08.534Z,51.50
2023-01-27T14:34:44.145Z,47.30
2023-01-27T14:38:36.090Z,48.90
2023-01-27T14:42:07.806Z,50.40
2023-01-27T14:45:25.814Z,50.30
2023-01-27T14:48:11.668Z,53.20
2023-01-27T14:52:04.796Z,52.90
2023-01-27T14:55:35.234Z,48.50
2023-01-27T14:59:33.267Z,48.20
2023-01-27T15:02:37.131Z,52.90
2023-01-27T15:05:55.361Z,55.90
2023-01-27T15:09:56.314Z,52.70
2023-01-27T15:13:46.287Z,48.70
2023-01-27T15:17:23.999Z,56.30
2023-01-27T15:21:15.176Z,48.40
2023-01-27T15:25:00.912Z,55.80
2023-01-27T15:28:47.567Z,65.10
2023-01-27T15:32:32.035Z,52.50
2023-01-27T15:36:31.456Z,49.10
2023-01-27T15:40:15.717Z,47.90
2023-01-27T15:43:53.441Z,46.70
2023-01-27T15:47:54.038Z,45.50
2023-01-27T15:51:45.983Z,44.70
2023-01-27T15:55:40.717Z,44.80
2023-01-27T15:59:57.148Z,41.40
2023-01-27T16:03:38.840Z,39.90
2023-01-27T16:07:18.837Z,39.40
2023-01-27T16:10:28.071Z,42.30
2023-01-27T16:13:59.233Z,39.80
2023-01-27T16:17:46.150Z,41.70
2023-01-27T16:21:36.706Z,36.20
2023-01-27T16:24:49.397Z,34.50
2023-01-27T16:28:53.281Z,35.40
2023-01-27T16:32:23.481Z,37.40
2023-01-27T16:36:02.097Z,41.10
2023-01-27T16:39:59.953Z,34.50
2023-01-27T16:43:36.419Z,34.30
2023-01-27T16:47:16.891Z,35.40
2023-01-27T16:51:11.107Z,30.40
2023-01-27T16:54:52.787Z,33.80
2023-01-27T16:58:25.806Z,36.30
2023-01-27T17:02:11.562Z,39.20
2023-01-27T17:05:40.169Z,55.40
2023-01-27T17:09:20.375Z,62.10
2023-01-27T17:12:32.058Z,49.60
2023-01-27T17:15:46.494Z,38.60
2023-01-27T17:19:32.868Z,31.80
2023-01-27T17:23:03.025Z,28.10
2023-01-27T17:26:46.753Z,24.20
2023-01-27T17:30:32.905Z,23.50
2023-01-27T17:34:26.131Z,22.70
2023-01-27T17:38:10.497Z,20.90
2023-01-27T17:42:30.931Z,22.10
2023-01-27T17:45:45.109Z,19.70
2023-01-27T17:49:20.548Z,19.60
2023-01-27T17:52:52.823Z,18.50
2023-01-27T17:56:20.425Z,17.50
2023-01-27T17:59:29.541Z,22.20
2023-01-27T18:03:20.904Z,23.40
2023-01-27T18:07:05.782Z,18.80
2023-01-27T18:10:51.556Z,19.60
2023-01-27T18:13:53.915Z,16.70
2023-01-27T18:17:10.900Z,20.30
2023-01-27T18:21:33.238Z,17.50
2023-01-27T18:24:33.495Z,18.20
2023-01-27T18:28:16.301Z,17.20
2023-01-27T18:32:17.277Z,17.80
2023-01-27T18:36:23.442Z,15.40
2023-01-27T18:40:24.449Z,15.30
2023-01-27T18:44:01.568Z,17.50
2023-01-27T18:47:55.888Z,13.70
2023-01-27T18:51:46.525Z,14.20
2023-01-27T18:54:51.618Z,16.40
2023-01-27T18:57:55.383Z,15.30
2023-01-27T19:01:24.039Z,21.10
2023-01-27T19:04:46.818Z,17.80
2023-01-27T19:08:02.160Z,14.30
2023-01-27T19:11:22.159Z,15.40
2023-01-27T19:15:06.136Z,18.90
2023-01-27T19:18:50.267Z,14.30
2023-01-27T19:22:11.643Z,13.70
2023-01-27T19:26:09.703Z,17.10
2023-01-27T19:29:59.197Z,15.80
2023-01-27T19:33:50.955Z,15.80
2023-01-27T19:37:01.135Z,14.40
2023-01-27T19:40:00.639Z,14.80
2023-01-27T19:43:36.023Z,12.90
2023-01-27T19:46:50.061Z,16.50
2023-01-27T19:50:34.050Z,20.10
2023-01-27T19:54:23.082Z,10.90
2023-01-27T19:58:02.497Z,12.00
2023-01-27T20:01:41.224Z,11.60
2023-01-27T20:05:14.827Z,14.00
2023-01-27T20:08:32.651Z,12.40
2023-01-27T20:12:22.586Z,13.40
2023-01-27T20:15:38.409Z,11.60
2023-01-27T20:19:01.749Z,11.00
2023-01-27T20:22:26.373Z,11.10
2023-01-27T20:26:13.030Z,12.90
2023-01-27T20:29:50.478Z,15.20
2023-01-27T20:33:03.674Z,14.00
2023-01-27T20:37:00.156Z,14.50
2023-01-27T20:40:33.380Z,10.90
2023-01-27T20:43:56.172Z,13.20
2023-01-27T20:47:53.925Z,12.80
2023-01-27T20:51:24.492Z,14.30
2023-01-27T20:55:17.690Z,15.20
2023-01-27T20:58:32.224Z,12.70
2023-01-27T21:02:02.631Z,11.60
2023-01-27T21:05:37.751Z,15.80
2023-01-27T21:09:33.717Z,16.30
2023-01-27T21:13:17.936Z,14.80
2023-01-27T21:17:02.531Z,13.00
2023-01-27T21:20:35.718Z,15.10
2023-01-27T21:24:03.586Z,16.90
2023-01-27T21:27:19.098Z,14.30
2023-01-27T21:30:43.593Z,13.40
2023-01-27T21:34:32.094Z,13.70
2023-01-27T21:38:06.169Z,17.50
2023-01-27T21:41:47.230Z,15.20
2023-01-27T21:45:34.364Z,14.70
2023-01-27T21:48:38.383Z,15.70
2023-01-27T21:52:02.622Z,14.50
2023-01-27T21:55:32.157Z,14.90
2023-01-27T21:59:01.572Z,15.30
2023-01-27T22:02:37.516Z,16.10
2023-01-27T22:06:16.193Z,14.80
2023-01-27T22:09:39.639Z,17.70
2023-01-27T22:12:34.562Z,17.00
2023-01-27T22:16:26.278Z,16.40
2023-01-27T22:19:32.044Z,16.50
2023-01-27T22:23:01.604Z,19.40
2023-01-27T22:26:47.751Z,15.90
2023-01-27T22:30:10.419Z,17.80
2023-01-27T22:33:38.474Z,16.50
2023-01-27T22:36:40.731Z,17.40
2023-01-27T22:40:00.582Z,17.60
2023-01-27T22:43:10.069Z,13.10
2023-01-27T22:47:11.324Z,12.50
2023-01-27T22:54:02.115Z,11.70
2023-01-27T22:57:40.263Z,12.50
2023-01-27T23:01:15.156Z,6.90
2023-01-27T23:05:02.086Z,10.30
2023-01-27T23:09:00.938Z,8.20
2023-01-27T23:12:21.172Z,8.10
2023-01-27T23:16:03.912Z,11.60
2023-01-27T23:19:22.104Z,10.00
2023-01-27T23:22:48.721Z,9.10
2023-01-27T23:26:28.642Z,6.80
2023-01-27T23:29:55.622Z,10.10
2023-01-27T23:33:50.500Z,5.60
2023-01-27T23:37:14.877Z,6.00
2023-01-27T23:41:18.902Z,6.30
2023-01-27T23:45:06.419Z,9.30
2023-01-27T23:48:55.606Z,5.40
2023-01-27T23:52:13.722Z,7.00
2023-01-27T23:55:47.975Z,6.10
2023-01-27T23:59:24.787Z,7.40
